createdAt,value
2023-05-16T00:00:52.808Z,3.90
2023-05-16T00:03:20.589Z,4.20
2023-05-16T00:05:50.347Z,3.70
2023-05-16T00:08:17.636Z,3.40
2023-05-16T00:10:44.506Z,3.40
2023-05-16T00:13:13.444Z,3.40
2023-05-16T00:15:40.628Z,3.30
2023-05-16T00:18:08.414Z,3.80
2023-05-16T00:20:37.330Z,3.60
2023-05-16T00:23:04.256Z,3.40
2023-05-16T00:25:31.447Z,3.60
2023-05-16T00:27:58.406Z,3.50
2023-05-16T00:30:25.528Z,3.70
2023-05-16T00:32:55.503Z,3.30
2023-05-16T00:35:23.759Z,3.60
2023-05-16T00:37:50.768Z,3.80
2023-05-16T00:40:18.259Z,3.60
2023-05-16T00:42:48.128Z,3.50
2023-05-16T00:45:15.000Z,3.50
2023-05-16T00:47:41.941Z,3.30
2023-05-16T00:50:09.577Z,3.20
2023-05-16T00:52:37.473Z,3.30
2023-05-16T00:55:05.366Z,3.70
2023-05-16T00:57:33.056Z,3.60
2023-05-16T00:59:59.964Z,3.50
2023-05-16T01:02:28.592Z,3.80
2023-05-16T01:04:56.303Z,3.50
2023-05-16T01:07:23.383Z,3.70
2023-05-16T01:09:50.924Z,3.90
2023-05-16T01:12:21.238Z,3.30
2023-05-16T01:14:56.793Z,3.60
2023-05-16T01:17:38.925Z,3.40
2023-05-16T01:23:13.250Z,3.40
2023-05-16T01:26:11.406Z,3.80
2023-05-16T01:28:39.601Z,3.50
2023-05-16T01:31:06.420Z,3.50
2023-05-16T01:33:33.630Z,3.70
2023-05-16T01:36:26.090Z,3.70
2023-05-16T01:39:11.933Z,3.70
2023-05-16T01:41:38.698Z,3.70
2023-05-16T01:44:10.213Z,3.80
2023-05-16T01:46:38.663Z,4.00
2023-05-16T01:49:35.306Z,3.60
2023-05-16T01:52:08.063Z,3.50
2023-05-16T01:54:36.874Z,3.50
2023-05-16T01:57:04.254Z,4.00
2023-05-16T01:59:31.878Z,3.50
2023-05-16T02:01:58.884Z,3.70
2023-05-16T02:04:25.892Z,4.00
2023-05-16T02:06:52.701Z,4.00
2023-05-16T02:09:19.646Z,4.00
2023-05-16T02:11:46.730Z,3.80
2023-05-16T02:14:13.701Z,3.50
2023-05-16T02:16:40.639Z,3.60
2023-05-16T02:19:07.439Z,4.00
2023-05-16T02:21:35.107Z,4.00
2023-05-16T02:24:01.895Z,3.70
2023-05-16T02:26:28.996Z,3.90
2023-05-16T02:28:55.832Z,3.80
2023-05-16T02:31:30.110Z,3.40
2023-05-16T02:33:58.169Z,3.90
2023-05-16T02:36:25.133Z,3.70
2023-05-16T02:38:52.326Z,3.60
2023-05-16T02:41:22.857Z,3.40
2023-05-16T02:43:49.682Z,3.70
2023-05-16T02:46:24.567Z,3.50
2023-05-16T02:48:51.602Z,3.50
2023-05-16T02:51:20.371Z,3.90
2023-05-16T02:53:47.315Z,3.90
2023-05-16T02:56:14.607Z,3.90
2023-05-16T02:58:41.857Z,3.60
2023-05-16T03:01:09.603Z,3.50
2023-05-16T03:03:37.250Z,3.70
2023-05-16T03:06:04.197Z,3.80
2023-05-16T03:08:33.321Z,3.90
2023-05-16T03:11:00.371Z,3.50
2023-05-16T03:13:30.509Z,3.90
2023-05-16T03:15:59.213Z,3.90
2023-05-16T03:18:26.202Z,3.50
2023-05-16T03:20:53.106Z,3.60
2023-05-16T03:23:20.710Z,3.70
2023-05-16T03:25:49.096Z,3.30
2023-05-16T03:28:18.098Z,3.80
2023-05-16T03:30:45.248Z,3.90
2023-05-16T03:33:12.207Z,3.40
2023-05-16T03:35:39.018Z,3.40
2023-05-16T03:38:05.995Z,3.70
2023-05-16T03:40:33.104Z,4.00
2023-05-16T03:43:00.037Z,4.10
2023-05-16T03:45:27.226Z,4.00
2023-05-16T03:47:54.344Z,3.60
2023-05-16T03:50:21.455Z,3.80
2023-05-16T03:52:48.513Z,4.20
2023-05-16T03:55:17.561Z,3.70
2023-05-16T03:57:44.684Z,4.10
2023-05-16T04:00:12.238Z,4.10
2023-05-16T04:02:43.479Z,4.00
2023-05-16T04:05:11.058Z,4.30
2023-05-16T04:07:40.482Z,4.50
2023-05-16T04:10:09.368Z,4.40
2023-05-16T04:12:36.493Z,4.00
2023-05-16T04:15:05.136Z,4.00
2023-05-16T04:17:33.254Z,4.40
2023-05-16T04:20:00.637Z,4.30
2023-05-16T04:22:27.470Z,4.60
2023-05-16T04:24:54.513Z,4.60
2023-05-16T04:27:21.361Z,4.40
2023-05-16T04:29:48.135Z,5.20
2023-05-16T04:32:17.066Z,4.00
2023-05-16T04:34:46.120Z,4.10
2023-05-16T04:37:13.040Z,3.90
2023-05-16T04:39:40.503Z,3.30
2023-05-16T04:42:10.179Z,3.50
2023-05-16T04:44:37.400Z,3.20
2023-05-16T04:47:04.413Z,2.80
2023-05-16T04:49:31.250Z,3.10
2023-05-16T04:51:58.641Z,3.10
2023-05-16T04:54:26.004Z,3.10
2023-05-16T04:56:52.772Z,3.20
2023-05-16T04:59:20.204Z,2.80
2023-05-16T05:01:47.086Z,3.00
2023-05-16T05:04:13.895Z,3.40
2023-05-16T05:06:40.778Z,2.90
2023-05-16T05:09:07.619Z,2.80
2023-05-16T05:11:35.136Z,3.00
2023-05-16T05:14:03.249Z,2.90
2023-05-16T05:16:30.583Z,3.20
2023-05-16T05:18:57.858Z,3.10
2023-05-16T05:21:24.947Z,3.20
2023-05-16T05:23:51.870Z,3.00
2023-05-16T05:26:18.671Z,3.10
2023-05-16T05:28:53.966Z,2.60
2023-05-16T05:31:24.276Z,2.70
2023-05-16T05:33:51.218Z,3.10
2023-05-16T05:36:17.965Z,3.10
2023-05-16T05:38:45.376Z,2.90
2023-05-16T05:41:12.465Z,2.90
2023-05-16T05:43:39.359Z,2.90
2023-05-16T05:46:06.855Z,3.10
2023-05-16T05:48:33.751Z,3.00
2023-05-16T05:51:00.623Z,2.90
2023-05-16T05:53:27.504Z,3.00
2023-05-16T05:55:54.289Z,3.00
2023-05-16T05:58:21.249Z,3.00
2023-05-16T06:00:48.344Z,3.60
2023-05-16T06:03:16.080Z,3.30
2023-05-16T06:05:43.430Z,2.60
2023-05-16T06:08:10.757Z,3.30
2023-05-16T06:10:37.727Z,3.20
2023-05-16T06:13:04.717Z,3.50
2023-05-16T06:15:31.621Z,3.50
2023-05-16T06:17:58.905Z,3.20
2023-05-16T06:20:26.035Z,3.30
2023-05-16T06:22:52.986Z,3.10
2023-05-16T06:25:20.086Z,3.00
2023-05-16T06:27:46.918Z,3.20
2023-05-16T06:30:13.873Z,3.10
2023-05-16T06:32:41.027Z,3.20
2023-05-16T06:35:09.192Z,3.40
2023-05-16T06:37:36.435Z,3.20
2023-05-16T06:40:04.624Z,3.20
2023-05-16T06:42:31.912Z,3.20
2023-05-16T06:44:59.532Z,3.30
2023-05-16T06:47:26.497Z,3.50
2023-05-16T06:49:53.368Z,3.50
2023-05-16T06:52:20.931Z,3.30
2023-05-16T06:54:47.781Z,3.80
2023-05-16T06:57:14.889Z,4.70
2023-05-16T06:59:42.655Z,5.10
2023-05-16T07:02:09.564Z,4.70
2023-05-16T07:04:37.498Z,4.90
2023-05-16T07:07:07.199Z,4.10
2023-05-16T07:09:34.741Z,3.60
2023-05-16T07:12:01.575Z,3.80
2023-05-16T07:14:28.883Z,3.60
2023-05-16T07:16:55.866Z,3.70
2023-05-16T07:19:28.377Z,3.80
2023-05-16T07:21:56.083Z,3.50
2023-05-16T07:24:23.197Z,3.60
2023-05-16T07:26:50.706Z,3.30
2023-05-16T07:29:18.147Z,3.40
2023-05-16T07:31:45.495Z,3.30
2023-05-16T07:34:12.536Z,3.60
2023-05-16T07:36:42.388Z,3.70
2023-05-16T07:39:09.845Z,3.60
2023-05-16T07:41:37.037Z,3.40
2023-05-16T07:44:03.953Z,3.40
2023-05-16T07:46:31.355Z,3.60
2023-05-16T07:48:58.235Z,3.10
2023-05-16T07:51:25.260Z,3.80
2023-05-16T07:53:52.130Z,3.40
2023-05-16T07:56:19.351Z,3.30
2023-05-16T07:58:48.400Z,3.60
2023-05-16T08:01:15.493Z,3.50
2023-05-16T08:03:42.498Z,3.70
2023-05-16T08:06:10.194Z,3.80
2023-05-16T08:08:37.701Z,3.80
2023-05-16T08:11:05.253Z,3.40
2023-05-16T08:13:35.593Z,3.90
2023-05-16T08:16:02.602Z,3.70
2023-05-16T08:18:30.385Z,3.50
2023-05-16T08:20:57.422Z,3.60
2023-05-16T08:23:24.421Z,5.80
2023-05-16T08:25:51.362Z,5.00
2023-05-16T08:28:22.035Z,5.10
2023-05-16T08:30:49.358Z,4.30
2023-05-16T08:33:16.702Z,5.50
2023-05-16T08:35:43.835Z,4.60
2023-05-16T08:38:10.902Z,6.50
2023-05-16T08:40:39.538Z,5.60
2023-05-16T08:43:06.772Z,5.20
2023-05-16T08:45:35.296Z,5.40
2023-05-16T08:48:03.339Z,9.00
2023-05-16T08:50:31.391Z,6.40
2023-05-16T08:53:06.848Z,7.90
2023-05-16T08:55:35.498Z,5.60
2023-05-16T08:58:03.181Z,5.00
2023-05-16T09:00:31.291Z,4.80
2023-05-16T09:02:58.295Z,4.90
2023-05-16T09:05:25.599Z,6.90
2023-05-16T09:07:53.455Z,5.80
2023-05-16T09:10:20.728Z,7.70
2023-05-16T09:12:47.680Z,8.10
2023-05-16T09:15:16.830Z,7.70
2023-05-16T09:17:45.922Z,6.10
2023-05-16T09:20:17.272Z,6.20
2023-05-16T09:22:52.251Z,4.60
2023-05-16T09:25:29.547Z,5.10
2023-05-16T09:27:58.973Z,4.50
2023-05-16T09:30:34.284Z,4.70
2023-05-16T09:33:01.968Z,4.80
2023-05-16T09:37:59.348Z,4.40
2023-05-16T09:40:26.643Z,4.60
2023-05-16T09:43:05.150Z,4.50
2023-05-16T09:45:33.657Z,4.10
2023-05-16T09:48:04.388Z,4.10
2023-05-16T09:50:36.128Z,4.10
2023-05-16T09:53:03.522Z,3.80
2023-05-16T09:55:30.888Z,4.10
2023-05-16T09:57:57.960Z,4.10
2023-05-16T10:00:32.903Z,4.60
2023-05-16T10:03:03.482Z,3.80
2023-05-16T10:05:32.370Z,3.60
2023-05-16T10:07:59.672Z,4.40
2023-05-16T10:10:26.662Z,4.00
2023-05-16T10:12:53.778Z,3.60
2023-05-16T10:15:21.635Z,3.60
2023-05-16T10:17:52.023Z,3.30
2023-05-16T10:20:18.953Z,3.30
2023-05-16T10:22:46.188Z,3.20
2023-05-16T10:25:29.729Z,3.00
2023-05-16T10:27:57.919Z,3.20
2023-05-16T10:30:25.046Z,3.50
2023-05-16T10:32:52.341Z,3.30
2023-05-16T10:35:20.740Z,3.00
2023-05-16T10:37:48.667Z,3.70
2023-05-16T10:40:16.365Z,3.50
2023-05-16T10:43:04.419Z,3.30
2023-05-16T10:45:32.267Z,3.00
2023-05-16T10:48:01.508Z,3.00
2023-05-16T10:50:41.693Z,3.10
2023-05-16T10:53:32.115Z,2.80
2023-05-16T10:55:59.190Z,2.70
2023-05-16T10:58:38.580Z,4.40
2023-05-16T11:01:29.606Z,3.00
2023-05-16T11:03:57.177Z,3.20
2023-05-16T11:06:27.243Z,2.90
2023-05-16T11:09:07.298Z,2.80
2023-05-16T11:12:09.013Z,4.10
2023-05-16T11:14:38.572Z,4.80
2023-05-16T11:17:20.265Z,5.90
2023-05-16T11:19:59.284Z,6.60
2023-05-16T11:22:28.596Z,6.40
2023-05-16T11:25:08.990Z,6.70
2023-05-16T11:27:45.356Z,6.00
2023-05-16T11:30:13.884Z,5.30
2023-05-16T11:32:43.399Z,4.70
2023-05-16T11:35:25.871Z,4.70
2023-05-16T11:37:53.236Z,3.90
2023-05-16T11:40:20.169Z,3.40
2023-05-16T11:42:47.890Z,3.70
2023-05-16T11:45:16.904Z,3.20
2023-05-16T11:47:44.827Z,3.30
2023-05-16T11:50:19.130Z,3.90
2023-05-16T11:52:56.659Z,3.60
2023-05-16T11:55:40.377Z,2.80
2023-05-16T11:58:09.727Z,3.30
2023-05-16T12:00:37.375Z,3.70
2023-05-16T12:03:05.465Z,3.00
2023-05-16T12:05:34.278Z,3.90
2023-05-16T12:08:02.229Z,3.40
2023-05-16T12:10:31.043Z,3.70
2023-05-16T12:12:58.431Z,3.30
2023-05-16T12:15:25.700Z,4.00
2023-05-16T12:17:54.022Z,3.60
2023-05-16T12:20:21.053Z,3.60
2023-05-16T12:22:48.070Z,3.90
2023-05-16T12:25:34.434Z,3.30
2023-05-16T12:28:02.609Z,3.80
2023-05-16T12:30:31.898Z,3.80
2023-05-16T12:33:00.442Z,3.50
2023-05-16T12:35:32.046Z,3.10
2023-05-16T12:38:00.105Z,3.10
2023-05-16T12:40:30.940Z,3.00
2023-05-16T12:42:58.430Z,2.90
2023-05-16T12:45:27.437Z,2.90
2023-05-16T12:47:54.608Z,3.10
2023-05-16T12:50:22.461Z,2.80
2023-05-16T12:52:54.703Z,3.10
2023-05-16T12:55:22.056Z,2.70
2023-05-16T12:57:49.345Z,3.10
2023-05-16T13:00:21.441Z,2.70
2023-05-16T13:02:49.074Z,3.30
2023-05-16T13:05:17.536Z,3.00
2023-05-16T13:07:44.655Z,3.00
2023-05-16T13:10:13.517Z,3.20
2023-05-16T13:12:42.548Z,2.90
2023-05-16T13:15:11.450Z,3.10
2023-05-16T13:17:38.906Z,2.90
2023-05-16T13:20:09.828Z,2.60
2023-05-16T13:22:37.179Z,2.70
2023-05-16T13:25:05.657Z,2.60
2023-05-16T13:27:32.872Z,3.10
2023-05-16T13:29:59.920Z,2.90
2023-05-16T13:32:27.242Z,2.80
2023-05-16T13:34:54.973Z,3.50
2023-05-16T13:37:23.977Z,2.90
2023-05-16T13:39:53.294Z,3.30
2023-05-16T13:42:20.867Z,3.00
2023-05-16T13:44:48.005Z,2.70
2023-05-16T13:47:15.612Z,3.40
2023-05-16T13:49:42.620Z,3.10
2023-05-16T13:52:09.698Z,2.80
2023-05-16T13:54:36.917Z,2.90
2023-05-16T13:57:04.322Z,3.00
2023-05-16T14:00:03.450Z,3.00
2023-05-16T14:02:19.948Z,2.80
2023-05-16T14:04:49.057Z,3.60
2023-05-16T14:07:17.902Z,2.80
2023-05-16T14:09:45.529Z,3.20
2023-05-16T14:12:12.503Z,3.00
2023-05-16T14:14:39.637Z,2.40
2023-05-16T14:17:07.296Z,3.60
2023-05-16T14:19:34.448Z,3.00
2023-05-16T14:22:01.478Z,2.30
2023-05-16T14:24:28.559Z,2.90
2023-05-16T14:26:55.896Z,2.50
2023-05-16T14:29:23.884Z,3.00
2023-05-16T14:31:50.967Z,2.80
2023-05-16T14:34:19.685Z,2.70
2023-05-16T14:36:46.715Z,2.50
2023-05-16T14:39:13.761Z,2.80
2023-05-16T14:41:41.891Z,2.50
2023-05-16T14:44:09.340Z,2.90
2023-05-16T14:46:36.455Z,2.70
2023-05-16T14:49:04.996Z,2.70
2023-05-16T14:51:32.102Z,3.40
2023-05-16T14:53:59.200Z,3.10
2023-05-16T14:56:27.758Z,6.70
2023-05-16T14:58:54.732Z,3.50
2023-05-16T15:01:22.216Z,2.90
2023-05-16T15:03:55.415Z,2.60
2023-05-16T15:06:24.133Z,2.90
2023-05-16T15:08:51.629Z,2.60
2023-05-16T15:11:18.961Z,2.90
2023-05-16T15:13:46.304Z,2.90
2023-05-16T15:16:13.366Z,2.60
2023-05-16T15:18:41.259Z,2.50
2023-05-16T15:21:08.627Z,3.10
2023-05-16T15:23:36.207Z,3.30
2023-05-16T15:26:03.666Z,2.40
2023-05-16T15:28:30.829Z,2.60
2023-05-16T15:30:57.879Z,2.50
2023-05-16T15:33:25.200Z,2.90
2023-05-16T15:35:52.587Z,2.80
2023-05-16T15:38:22.869Z,2.60
2023-05-16T15:40:55.217Z,3.00
2023-05-16T15:43:25.433Z,2.80
2023-05-16T15:45:52.452Z,2.70
2023-05-16T15:48:19.773Z,2.70
2023-05-16T15:50:46.761Z,3.00
2023-05-16T15:53:13.671Z,3.10
2023-05-16T15:55:40.706Z,3.20
2023-05-16T15:58:07.923Z,2.90
2023-05-16T16:00:38.988Z,2.90
2023-05-16T16:03:06.687Z,2.90
2023-05-16T16:05:34.335Z,3.20
2023-05-16T16:08:01.694Z,3.20
2023-05-16T16:10:31.017Z,3.30
2023-05-16T16:13:02.078Z,3.20
2023-05-16T16:15:32.812Z,3.20
2023-05-16T16:18:00.712Z,3.40
2023-05-16T16:20:27.834Z,3.00
2023-05-16T16:23:04.911Z,3.10
2023-05-16T16:25:32.195Z,3.00
2023-05-16T16:27:59.608Z,3.20
2023-05-16T16:30:27.451Z,2.90
2023-05-16T16:32:54.524Z,3.50
2023-05-16T16:35:25.227Z,3.30
2023-05-16T16:38:05.706Z,3.20
2023-05-16T16:40:34.363Z,3.10
2023-05-16T16:43:01.394Z,3.20
2023-05-16T16:45:29.485Z,3.30
2023-05-16T16:47:57.994Z,3.30
2023-05-16T16:50:25.198Z,3.10
2023-05-16T16:52:53.460Z,3.10
2023-05-16T16:55:20.784Z,3.40
2023-05-16T16:57:47.739Z,3.40
2023-05-16T17:00:15.028Z,3.60
2023-05-16T17:02:42.265Z,3.30
2023-05-16T17:05:09.627Z,3.50
2023-05-16T17:07:37.219Z,3.60
2023-05-16T17:10:04.954Z,3.50
2023-05-16T17:12:34.422Z,3.50
2023-05-16T17:15:02.031Z,3.30
2023-05-16T17:17:29.570Z,3.70
2023-05-16T17:19:56.551Z,3.20
2023-05-16T17:22:23.472Z,3.00
2023-05-16T17:24:51.701Z,3.30
2023-05-16T17:27:18.951Z,3.30
2023-05-16T17:29:45.983Z,3.00
2023-05-16T17:32:12.971Z,3.20
2023-05-16T17:34:42.475Z,2.90
2023-05-16T17:37:10.177Z,3.30
2023-05-16T17:39:39.856Z,3.00
2023-05-16T17:42:08.938Z,3.00
2023-05-16T17:44:36.330Z,2.90
2023-05-16T17:47:05.066Z,3.20
2023-05-16T17:49:32.340Z,3.50
2023-05-16T17:52:00.261Z,3.20
2023-05-16T17:54:30.598Z,3.10
2023-05-16T17:56:57.862Z,3.40
2023-05-16T17:59:26.935Z,3.20
2023-05-16T18:01:55.616Z,3.30
2023-05-16T18:04:23.532Z,3.00
2023-05-16T18:06:54.013Z,3.10
2023-05-16T18:09:21.466Z,3.00
2023-05-16T18:11:49.976Z,3.20
2023-05-16T18:14:17.036Z,3.00
2023-05-16T18:16:44.071Z,3.40
2023-05-16T18:19:13.894Z,3.40
2023-05-16T18:21:44.558Z,3.10
2023-05-16T18:24:15.415Z,3.20
2023-05-16T18:26:43.863Z,3.90
2023-05-16T18:29:10.859Z,3.30
2023-05-16T18:31:40.714Z,3.10
2023-05-16T18:34:11.613Z,3.30
2023-05-16T18:36:38.682Z,3.10
2023-05-16T18:39:06.648Z,3.10
2023-05-16T18:41:34.135Z,3.20
2023-05-16T18:44:01.164Z,3.30
2023-05-16T18:46:28.818Z,3.20
2023-05-16T18:48:57.401Z,2.80
2023-05-16T18:51:24.681Z,3.00
2023-05-16T18:53:52.036Z,2.90
2023-05-16T18:56:18.972Z,3.30
2023-05-16T18:58:46.878Z,2.70
2023-05-16T19:01:14.001Z,3.20
2023-05-16T19:03:41.118Z,3.40
2023-05-16T19:06:11.489Z,3.50
2023-05-16T19:08:47.454Z,3.40
2023-05-16T19:11:18.408Z,3.40
2023-05-16T19:13:45.861Z,3.50
2023-05-16T19:16:12.962Z,3.30
2023-05-16T19:18:40.853Z,3.70
2023-05-16T19:21:09.724Z,3.90
2023-05-16T19:23:41.181Z,3.80
2023-05-16T19:26:08.284Z,3.50
2023-05-16T19:28:37.423Z,3.50
2023-05-16T19:31:09.797Z,3.60
2023-05-16T19:33:37.683Z,3.60
2023-05-16T19:36:05.470Z,3.60
2023-05-16T19:38:32.576Z,3.80
2023-05-16T19:41:01.866Z,3.50
2023-05-16T19:43:29.260Z,3.40
2023-05-16T19:45:56.173Z,3.50
2023-05-16T19:48:23.917Z,3.50
2023-05-16T19:50:51.530Z,3.40
2023-05-16T19:53:18.499Z,3.70
2023-05-16T19:55:49.092Z,3.40
2023-05-16T19:58:16.638Z,3.60
2023-05-16T20:00:43.703Z,3.60
2023-05-16T20:03:10.891Z,3.90
2023-05-16T20:05:39.146Z,3.60
2023-05-16T20:08:06.601Z,3.90
2023-05-16T20:10:34.824Z,4.00
2023-05-16T20:13:05.180Z,3.80
2023-05-16T20:15:32.444Z,4.10
2023-05-16T20:17:59.479Z,4.00
2023-05-16T20:20:26.672Z,3.40
2023-05-16T20:22:53.603Z,3.90
2023-05-16T20:25:20.654Z,3.80
2023-05-16T20:27:47.849Z,3.80
2023-05-16T20:30:14.886Z,3.80
2023-05-16T20:32:43.165Z,3.80
2023-05-16T20:35:12.062Z,3.70
2023-05-16T20:37:40.839Z,3.80
2023-05-16T20:40:08.744Z,3.80
2023-05-16T20:42:36.065Z,3.50
2023-05-16T20:45:03.795Z,3.90
2023-05-16T20:47:31.362Z,3.50
2023-05-16T20:49:58.750Z,4.00
2023-05-16T20:52:27.334Z,3.60
2023-05-16T20:54:57.897Z,3.50
2023-05-16T20:57:24.986Z,3.90
2023-05-16T20:59:52.007Z,3.90
2023-05-16T21:02:19.004Z,3.90
2023-05-16T21:04:46.026Z,3.70
2023-05-16T21:07:13.093Z,4.00
2023-05-16T21:09:41.488Z,3.90
2023-05-16T21:12:08.718Z,4.00
2023-05-16T21:14:36.173Z,4.00
2023-05-16T21:17:03.265Z,3.70
2023-05-16T21:19:36.820Z,4.00
2023-05-16T21:22:06.484Z,4.00
2023-05-16T21:24:35.256Z,4.00
2023-05-16T21:27:04.537Z,3.70
2023-05-16T21:29:33.024Z,3.90
2023-05-16T21:32:03.083Z,3.70
2023-05-16T21:34:30.099Z,4.00
2023-05-16T21:36:58.151Z,4.20
2023-05-16T21:39:25.288Z,4.20
2023-05-16T21:41:52.244Z,3.80
2023-05-16T21:44:20.242Z,3.80
2023-05-16T21:46:47.311Z,4.00
2023-05-16T21:49:14.331Z,4.10
2023-05-16T21:51:41.454Z,4.10
2023-05-16T21:54:08.413Z,4.30
2023-05-16T21:56:36.200Z,3.70
2023-05-16T21:59:03.060Z,4.60
2023-05-16T22:01:30.003Z,4.60
2023-05-16T22:03:57.774Z,4.40
2023-05-16T22:06:24.930Z,4.10
2023-05-16T22:08:52.984Z,4.00
2023-05-16T22:11:19.826Z,4.20
2023-05-16T22:13:47.357Z,4.10
2023-05-16T22:16:14.884Z,4.00
2023-05-16T22:18:44.740Z,3.90
2023-05-16T22:21:11.859Z,4.00
2023-05-16T22:23:39.113Z,4.30
2023-05-16T22:26:06.152Z,4.10
2023-05-16T22:28:33.144Z,4.50
2023-05-16T22:31:00.518Z,4.10
2023-05-16T22:33:27.566Z,4.50
2023-05-16T22:35:54.778Z,4.50
2023-05-16T22:38:21.642Z,4.50
2023-05-16T22:40:48.636Z,4.10
2023-05-16T22:43:16.331Z,4.30
2023-05-16T22:45:43.169Z,3.70
2023-05-16T22:48:10.220Z,4.20
2023-05-16T22:50:37.889Z,4.00
2023-05-16T22:53:04.828Z,4.30
2023-05-16T22:55:33.505Z,4.40
2023-05-16T22:58:04.357Z,4.30
2023-05-16T23:00:33.039Z,4.50
2023-05-16T23:02:59.944Z,4.10
2023-05-16T23:05:27.074Z,4.40
2023-05-16T23:07:54.304Z,4.40
2023-05-16T23:10:21.140Z,4.30
2023-05-16T23:12:48.270Z,4.30
2023-05-16T23:15:15.139Z,4.10
2023-05-16T23:17:42.090Z,4.10
2023-05-16T23:20:11.374Z,3.80
2023-05-16T23:22:38.670Z,4.20
2023-05-16T23:25:06.486Z,4.10
2023-05-16T23:27:34.083Z,4.00
2023-05-16T23:30:01.044Z,3.90
2023-05-16T23:32:29.288Z,4.40
2023-05-16T23:34:56.193Z,3.70
2023-05-16T23:37:24.613Z,4.20
2023-05-16T23:39:51.469Z,4.40
2023-05-16T23:42:18.304Z,4.30
2023-05-16T23:44:45.850Z,4.00
2023-05-16T23:47:13.088Z,4.00
2023-05-16T23:49:40.356Z,4.20
2023-05-16T23:52:07.336Z,4.60
2023-05-16T23:54:34.245Z,4.10
2023-05-16T23:57:01.161Z,4.40
2023-05-16T23:59:28.062Z,3.90
